sensor_id;sensor_type;location;lat;lon;timestamp;pressure;altitude;pressure_sealevel;temperature;humidity
22550;BME280;11441;57.164;-2.120;2023-02-14T00:01:22;102205.88;;;4.54;100.00
22550;BME280;11441;57.164;-2.120;2023-02-14T00:03:49;102210.25;;;4.50;100.00
22550;BME280;11441;57.164;-2.120;2023-02-14T00:06:16;102213.50;;;4.52;100.00
22550;BME280;11441;57.164;-2.120;2023-02-14T00:08:44;102194.69;;;4.45;100.00
22550;BME280;11441;57.164;-2.120;2023-02-14T00:11:11;102199.91;;;4.37;100.00
22550;BME280;11441;57.164;-2.120;2023-02-14T00:13:38;102200.44;;;4.33;100.00
22550;BME280;11441;57.164;-2.120;2023-02-14T00:16:25;102199.38;;;4.24;100.00
22550;BME280;11441;57.164;-2.120;2023-02-14T00:18:52;102201.56;;;4.38;100.00
22550;BME280;11441;57.164;-2.120;2023-02-14T00:21:33;102189.56;;;4.28;100.00
22550;BME280;11441;57.164;-2.120;2023-02-14T00:24:07;102198.28;;;4.41;100.00
22550;BME280;11441;57.164;-2.120;2023-02-14T00:26:34;102205.91;;;4.39;100.00
22550;BME280;11441;57.164;-2.120;2023-02-14T00:29:05;102197.19;;;4.26;100.00
22550;BME280;11441;57.164;-2.120;2023-02-14T00:31:51;102195.59;;;4.20;100.00
22550;BME280;11441;57.164;-2.120;2023-02-14T00:34:18;102191.72;;;4.31;100.00
22550;BME280;11441;57.164;-2.120;2023-02-14T00:36:46;102181.94;;;4.30;100.00
22550;BME280;11441;57.164;-2.120;2023-02-14T00:39:16;102177.28;;;4.31;100.00
22550;BME280;11441;57.164;-2.120;2023-02-14T00:41:43;102182.22;;;4.24;100.00
22550;BME280;11441;57.164;-2.120;2023-02-14T00:44:11;102170.44;;;4.33;100.00
22550;BME280;11441;57.164;-2.120;2023-02-14T00:46:38;102171.81;;;4.36;100.00
22550;BME280;11441;57.164;-2.120;2023-02-14T00:49:05;102165.56;;;4.25;100.00
22550;BME280;11441;57.164;-2.120;2023-02-14T00:51:32;102168.28;;;4.30;100.00
22550;BME280;11441;57.164;-2.120;2023-02-14T00:54:00;102159.88;;;4.22;100.00
22550;BME280;11441;57.164;-2.120;2023-02-14T00:56:30;102169.41;;;4.14;100.00
22550;BME280;11441;57.164;-2.120;2023-02-14T00:58:57;102160.16;;;4.15;100.00
22550;BME280;11441;57.164;-2.120;2023-02-14T01:01:24;102153.03;;;4.14;100.00
22550;BME280;11441;57.164;-2.120;2023-02-14T01:03:51;102150.84;;;4.16;100.00
22550;BME280;11441;57.164;-2.120;2023-02-14T01:06:37;102157.69;;;4.03;100.00
22550;BME280;11441;57.164;-2.120;2023-02-14T01:09:04;102150.91;;;3.90;100.00
22550;BME280;11441;57.164;-2.120;2023-02-14T01:11:31;102151.44;;;3.92;100.00
22550;BME280;11441;57.164;-2.120;2023-02-14T01:14:17;102157.44;;;4.05;100.00
22550;BME280;11441;57.164;-2.120;2023-02-14T01:16:44;102155.25;;;3.96;100.00
22550;BME280;11441;57.164;-2.120;2023-02-14T01:19:11;102137.28;;;3.90;100.00
22550;BME280;11441;57.164;-2.120;2023-02-14T01:21:56;102140.53;;;3.97;100.00
22550;BME280;11441;57.164;-2.120;2023-02-14T01:24:40;102144.63;;;3.95;100.00
22550;BME280;11441;57.164;-2.120;2023-02-14T01:27:24;102146.25;;;4.01;100.00
22550;BME280;11441;57.164;-2.120;2023-02-14T01:30:11;102143.00;;;3.99;100.00
22550;BME280;11441;57.164;-2.120;2023-02-14T01:32:39;102134.00;;;3.93;100.00
22550;BME280;11441;57.164;-2.120;2023-02-14T01:35:06;102130.16;;;4.00;100.00
22550;BME280;11441;57.164;-2.120;2023-02-14T01:37:33;102118.75;;;3.87;100.00
22550;BME280;11441;57.164;-2.120;2023-02-14T01:40:00;102117.38;;;3.85;100.00
22550;BME280;11441;57.164;-2.120;2023-02-14T01:42:28;102109.44;;;3.93;100.00
22550;BME280;11441;57.164;-2.120;2023-02-14T01:44:58;102108.63;;;3.93;100.00
22550;BME280;11441;57.164;-2.120;2023-02-14T01:47:45;102106.97;;;4.02;100.00
22550;BME280;11441;57.164;-2.120;2023-02-14T01:50:25;102095.81;;;3.99;100.00
22550;BME280;11441;57.164;-2.120;2023-02-14T01:52:58;102096.34;;;4.06;100.00
22550;BME280;11441;57.164;-2.120;2023-02-14T01:55:31;102089.00;;;3.96;100.00
22550;BME280;11441;57.164;-2.120;2023-02-14T01:58:03;102089.81;;;4.07;100.00
22550;BME280;11441;57.164;-2.120;2023-02-14T02:00:32;102079.38;;;4.24;100.00
22550;BME280;11441;57.164;-2.120;2023-02-14T02:03:18;102082.13;;;4.19;100.00
22550;BME280;11441;57.164;-2.120;2023-02-14T02:05:52;102076.41;;;4.15;100.00
22550;BME280;11441;57.164;-2.120;2023-02-14T02:08:43;102072.56;;;4.32;100.00
22550;BME280;11441;57.164;-2.120;2023-02-14T02:11:14;102090.31;;;4.14;100.00
22550;BME280;11441;57.164;-2.120;2023-02-14T02:13:40;102069.59;;;4.18;100.00
22550;BME280;11441;57.164;-2.120;2023-02-14T02:21:43;102094.66;;;4.25;100.00
22550;BME280;11441;57.164;-2.120;2023-02-14T02:27:03;102093.06;;;4.09;100.00
22550;BME280;11441;57.164;-2.120;2023-02-14T02:48:05;102082.75;;;4.01;100.00
22550;BME280;11441;57.164;-2.120;2023-02-14T02:50:41;102083.81;;;4.05;100.00
22550;BME280;11441;57.164;-2.120;2023-02-14T02:53:50;102081.34;;;4.03;100.00
22550;BME280;11441;57.164;-2.120;2023-02-14T02:56:35;102073.47;;;3.91;100.00
22550;BME280;11441;57.164;-2.120;2023-02-14T02:59:43;102066.09;;;3.97;100.00
22550;BME280;11441;57.164;-2.120;2023-02-14T03:02:12;102061.25;;;3.84;100.00
22550;BME280;11441;57.164;-2.120;2023-02-14T03:04:52;102072.66;;;3.91;100.00
22550;BME280;11441;57.164;-2.120;2023-02-14T03:07:36;102064.75;;;3.89;100.00
22550;BME280;11441;57.164;-2.120;2023-02-14T03:10:21;102071.88;;;3.90;100.00
22550;BME280;11441;57.164;-2.120;2023-02-14T03:20:50;102068.88;;;3.82;100.00
22550;BME280;11441;57.164;-2.120;2023-02-14T03:23:26;102063.16;;;3.78;100.00
22550;BME280;11441;57.164;-2.120;2023-02-14T03:28:56;102069.16;;;3.70;100.00
22550;BME280;11441;57.164;-2.120;2023-02-14T03:31:53;102071.03;;;3.80;100.00
22550;BME280;11441;57.164;-2.120;2023-02-14T03:34:34;102073.50;;;3.66;100.00
22550;BME280;11441;57.164;-2.120;2023-02-14T03:37:17;102070.50;;;3.72;100.00
22550;BME280;11441;57.164;-2.120;2023-02-14T03:42:42;102073.25;;;3.57;100.00
22550;BME280;11441;57.164;-2.120;2023-02-14T03:45:18;102066.16;;;3.76;100.00
22550;BME280;11441;57.164;-2.120;2023-02-14T03:47:49;102074.63;;;3.65;100.00
22550;BME280;11441;57.164;-2.120;2023-02-14T03:50:18;102071.63;;;3.66;100.00
22550;BME280;11441;57.164;-2.120;2023-02-14T03:52:49;102066.97;;;3.72;100.00
22550;BME280;11441;57.164;-2.120;2023-02-14T03:55:23;102065.31;;;3.81;100.00
22550;BME280;11441;57.164;-2.120;2023-02-14T03:58:02;102061.81;;;3.65;100.00
22550;BME280;11441;57.164;-2.120;2023-02-14T04:00:36;102059.06;;;3.81;100.00
22550;BME280;11441;57.164;-2.120;2023-02-14T04:03:08;102049.28;;;3.64;100.00
22550;BME280;11441;57.164;-2.120;2023-02-14T04:05:40;102041.66;;;3.56;100.00
22550;BME280;11441;57.164;-2.120;2023-02-14T04:08:10;102044.09;;;3.68;100.00
22550;BME280;11441;57.164;-2.120;2023-02-14T04:10:37;102046.81;;;3.73;100.00
22550;BME280;11441;57.164;-2.120;2023-02-14T04:13:05;102036.72;;;3.73;100.00
22550;BME280;11441;57.164;-2.120;2023-02-14T04:15:32;102042.47;;;3.62;100.00
22550;BME280;11441;57.164;-2.120;2023-02-14T04:17:59;102048.19;;;3.65;100.00
22550;BME280;11441;57.164;-2.120;2023-02-14T04:20:44;102049.56;;;3.63;100.00
22550;BME280;11441;57.164;-2.120;2023-02-14T04:23:11;102053.38;;;3.67;100.00
22550;BME280;11441;57.164;-2.120;2023-02-14T04:25:38;102047.38;;;3.75;100.00
22550;BME280;11441;57.164;-2.120;2023-02-14T04:28:08;102044.91;;;3.73;100.00
22550;BME280;11441;57.164;-2.120;2023-02-14T04:30:35;102048.44;;;3.79;100.00
22550;BME280;11441;57.164;-2.120;2023-02-14T04:33:02;102044.09;;;3.68;100.00
22550;BME280;11441;57.164;-2.120;2023-02-14T04:35:30;102044.13;;;3.57;100.00
22550;BME280;11441;57.164;-2.120;2023-02-14T04:38:15;102039.75;;;3.36;100.00
22550;BME280;11441;57.164;-2.120;2023-02-14T04:40:42;102056.94;;;3.31;100.00
22550;BME280;11441;57.164;-2.120;2023-02-14T04:43:09;102048.22;;;3.39;100.00
22550;BME280;11441;57.164;-2.120;2023-02-14T04:45:35;102054.19;;;3.62;100.00
22550;BME280;11441;57.164;-2.120;2023-02-14T04:48:02;102052.56;;;3.56;100.00
22550;BME280;11441;57.164;-2.120;2023-02-14T04:50:29;102046.03;;;3.52;100.00
22550;BME280;11441;57.164;-2.120;2023-02-14T04:52:56;102047.66;;;3.48;100.00
22550;BME280;11441;57.164;-2.120;2023-02-14T04:55:23;102055.56;;;3.44;100.00
22550;BME280;11441;57.164;-2.120;2023-02-14T04:57:50;102058.03;;;3.30;100.00
22550;BME280;11441;57.164;-2.120;2023-02-14T05:00:17;102052.03;;;3.44;100.00
22550;BME280;11441;57.164;-2.120;2023-02-14T05:02:44;102046.84;;;3.52;100.00
22550;BME280;11441;57.164;-2.120;2023-02-14T05:05:11;102047.94;;;3.51;100.00
22550;BME280;11441;57.164;-2.120;2023-02-14T05:07:38;102047.41;;;3.49;100.00
22550;BME280;11441;57.164;-2.120;2023-02-14T05:10:05;102049.56;;;3.57;100.00
22550;BME280;11441;57.164;-2.120;2023-02-14T05:12:32;102052.56;;;3.51;100.00
22550;BME280;11441;57.164;-2.120;2023-02-14T05:14:58;102053.63;;;3.60;100.00
22550;BME280;11441;57.164;-2.120;2023-02-14T05:17:25;102051.19;;;3.53;100.00
22550;BME280;11441;57.164;-2.120;2023-02-14T05:19:52;102061.00;;;3.59;100.00
22550;BME280;11441;57.164;-2.120;2023-02-14T05:22:19;102059.94;;;3.55;100.00
22550;BME280;11441;57.164;-2.120;2023-02-14T05:24:45;102067.00;;;3.62;100.00
22550;BME280;11441;57.164;-2.120;2023-02-14T05:27:12;102065.38;;;3.61;100.00
22550;BME280;11441;57.164;-2.120;2023-02-14T05:29:39;102052.84;;;3.54;100.00
22550;BME280;11441;57.164;-2.120;2023-02-14T05:32:06;102048.72;;;3.57;100.00
22550;BME280;11441;57.164;-2.120;2023-02-14T05:34:52;102053.38;;;3.62;100.00
22550;BME280;11441;57.164;-2.120;2023-02-14T05:37:19;102038.41;;;3.54;100.00
22550;BME280;11441;57.164;-2.120;2023-02-14T05:39:46;102043.03;;;3.53;100.00
22550;BME280;11441;57.164;-2.120;2023-02-14T05:42:13;102055.03;;;3.37;100.00
22550;BME280;11441;57.164;-2.120;2023-02-14T05:44:40;102045.50;;;3.29;100.00
22550;BME280;11441;57.164;-2.120;2023-02-14T05:47:06;102043.59;;;3.30;100.00
22550;BME280;11441;57.164;-2.120;2023-02-14T05:49:34;102046.59;;;3.33;100.00
22550;BME280;11441;57.164;-2.120;2023-02-14T05:52:01;102052.31;;;3.27;100.00
22550;BME280;11441;57.164;-2.120;2023-02-14T05:54:47;102060.47;;;3.32;100.00
22550;BME280;11441;57.164;-2.120;2023-02-14T05:57:15;102065.13;;;3.36;100.00
22550;BME280;11441;57.164;-2.120;2023-02-14T05:59:42;102053.13;;;3.27;100.00
22550;BME280;11441;57.164;-2.120;2023-02-14T06:02:09;102060.75;;;3.30;100.00
22550;BME280;11441;57.164;-2.120;2023-02-14T06:04:36;102053.94;;;3.12;100.00
22550;BME280;11441;57.164;-2.120;2023-02-14T06:07:21;102043.06;;;3.07;100.00
22550;BME280;11441;57.164;-2.120;2023-02-14T06:09:48;102043.84;;;2.97;100.00
22550;BME280;11441;57.164;-2.120;2023-02-14T06:12:15;102046.31;;;2.99;100.00
22550;BME280;11441;57.164;-2.120;2023-02-14T06:14:41;102044.13;;;3.01;100.00
22550;BME280;11441;57.164;-2.120;2023-02-14T06:17:08;102048.22;;;3.04;100.00
22550;BME280;11441;57.164;-2.120;2023-02-14T06:19:35;102051.50;;;3.11;100.00
22550;BME280;11441;57.164;-2.120;2023-02-14T06:22:03;102046.06;;;3.16;100.00
22550;BME280;11441;57.164;-2.120;2023-02-14T06:24:30;102038.41;;;3.13;100.00
22550;BME280;11441;57.164;-2.120;2023-02-14T06:26:58;102040.88;;;3.19;100.00
22550;BME280;11441;57.164;-2.120;2023-02-14T06:29:24;102039.22;;;3.18;100.00
22550;BME280;11441;57.164;-2.120;2023-02-14T06:31:51;102044.13;;;3.32;100.00
22550;BME280;11441;57.164;-2.120;2023-02-14T06:34:18;102040.88;;;3.40;100.00
22550;BME280;11441;57.164;-2.120;2023-02-14T06:36:45;102037.88;;;3.47;100.00
22550;BME280;11441;57.164;-2.120;2023-02-14T06:39:12;102038.69;;;3.42;100.00
22550;BME280;11441;57.164;-2.120;2023-02-14T06:41:57;102024.78;;;3.44;100.00
22550;BME280;11441;57.164;-2.120;2023-02-14T06:44:24;102009.00;;;3.51;100.00
22550;BME280;11441;57.164;-2.120;2023-02-14T06:46:51;102004.63;;;3.50;100.00
22550;BME280;11441;57.164;-2.120;2023-02-14T06:49:36;102019.06;;;3.61;100.00
22550;BME280;11441;57.164;-2.120;2023-02-14T06:52:05;102020.94;;;3.65;100.00
22550;BME280;11441;57.164;-2.120;2023-02-14T06:54:32;101999.16;;;3.55;100.00
22550;BME280;11441;57.164;-2.120;2023-02-14T06:56:59;101988.00;;;3.51;100.00
22550;BME280;11441;57.164;-2.120;2023-02-14T06:59:25;102013.31;;;3.57;100.00
22550;BME280;11441;57.164;-2.120;2023-02-14T07:01:52;102022.31;;;3.63;100.00
22550;BME280;11441;57.164;-2.120;2023-02-14T07:04:19;102032.63;;;3.71;100.00
22550;BME280;11441;57.164;-2.120;2023-02-14T07:06:46;102034.81;;;3.69;100.00
22550;BME280;11441;57.164;-2.120;2023-02-14T07:09:13;102008.69;;;3.73;100.00
22550;BME280;11441;57.164;-2.120;2023-02-14T07:11:44;102020.13;;;3.65;100.00
22550;BME280;11441;57.164;-2.120;2023-02-14T07:14:11;102006.00;;;3.52;100.00
22550;BME280;11441;57.164;-2.120;2023-02-14T07:16:38;102015.78;;;3.58;100.00
22550;BME280;11441;57.164;-2.120;2023-02-14T07:19:05;102027.22;;;3.61;100.00
22550;BME280;11441;57.164;-2.120;2023-02-14T07:21:32;102022.88;;;3.59;100.00
22550;BME280;11441;57.164;-2.120;2023-02-14T07:23:59;102026.94;;;3.62;100.00
22550;BME280;11441;57.164;-2.120;2023-02-14T07:26:26;102003.53;;;3.56;100.00
22550;BME280;11441;57.164;-2.120;2023-02-14T07:28:52;102014.41;;;3.61;100.00
22550;BME280;11441;57.164;-2.120;2023-02-14T07:31:20;102030.50;;;3.57;100.00
22550;BME280;11441;57.164;-2.120;2023-02-14T07:33:50;101994.81;;;3.54;100.00
22550;BME280;11441;57.164;-2.120;2023-02-14T07:36:17;102027.25;;;3.45;100.00
22550;BME280;11441;57.164;-2.120;2023-02-14T07:38:44;102010.66;;;3.42;100.00
22550;BME280;11441;57.164;-2.120;2023-02-14T07:41:11;102009.00;;;3.20;100.00
22550;BME280;11441;57.164;-2.120;2023-02-14T07:43:38;102022.34;;;3.37;100.00
22550;BME280;11441;57.164;-2.120;2023-02-14T07:46:05;102035.97;;;3.47;100.00
22550;BME280;11441;57.164;-2.120;2023-02-14T07:48:32;102062.66;;;3.40;100.00
22550;BME280;11441;57.164;-2.120;2023-02-14T07:51:00;102072.44;;;3.46;100.00
22550;BME280;11441;57.164;-2.120;2023-02-14T07:53:28;102064.81;;;3.48;100.00
22550;BME280;11441;57.164;-2.120;2023-02-14T07:55:55;102080.88;;;3.81;100.00
22550;BME280;11441;57.164;-2.120;2023-02-14T07:58:22;102070.53;;;3.67;100.00
22550;BME280;11441;57.164;-2.120;2023-02-14T08:00:49;102064.25;;;3.72;100.00
22550;BME280;11441;57.164;-2.120;2023-02-14T08:03:17;102051.72;;;3.71;100.00
22550;BME280;11441;57.164;-2.120;2023-02-14T08:05:44;102069.19;;;3.54;100.00
22550;BME280;11441;57.164;-2.120;2023-02-14T08:08:24;102055.84;;;3.53;100.00
22550;BME280;11441;57.164;-2.120;2023-02-14T08:10:51;102041.94;;;3.54;100.00
22550;BME280;11441;57.164;-2.120;2023-02-14T08:13:19;102033.50;;;3.51;100.00
22550;BME280;11441;57.164;-2.120;2023-02-14T08:15:45;102044.91;;;3.63;100.00
22550;BME280;11441;57.164;-2.120;2023-02-14T08:18:37;102036.22;;;3.61;100.00
22550;BME280;11441;57.164;-2.120;2023-02-14T08:21:06;102019.34;;;3.54;100.00
22550;BME280;11441;57.164;-2.120;2023-02-14T08:23:34;102032.13;;;3.58;100.00
22550;BME280;11441;57.164;-2.120;2023-02-14T08:26:01;102031.03;;;3.59;100.00
22550;BME280;11441;57.164;-2.120;2023-02-14T08:28:28;102006.53;;;3.54;100.00
22550;BME280;11441;57.164;-2.120;2023-02-14T08:30:54;102020.13;;;3.59;100.00
22550;BME280;11441;57.164;-2.120;2023-02-14T08:33:21;102022.56;;;3.76;100.00
22550;BME280;11441;57.164;-2.120;2023-02-14T08:35:50;102027.19;;;3.66;100.00
22550;BME280;11441;57.164;-2.120;2023-02-14T08:38:17;102022.28;;;3.83;100.00
22550;BME280;11441;57.164;-2.120;2023-02-14T08:40:44;102001.81;;;3.81;100.00
22550;BME280;11441;57.164;-2.120;2023-02-14T08:43:11;101998.25;;;3.95;100.00
22550;BME280;11441;57.164;-2.120;2023-02-14T08:45:38;102006.69;;;3.94;100.00
22550;BME280;11441;57.164;-2.120;2023-02-14T08:48:08;101983.53;;;3.91;100.00
22550;BME280;11441;57.164;-2.120;2023-02-14T08:50:53;101981.91;;;3.90;100.00
22550;BME280;11441;57.164;-2.120;2023-02-14T08:53:20;101977.25;;;3.91;100.00
22550;BME280;11441;57.164;-2.120;2023-02-14T08:55:47;101993.59;;;3.96;100.00
22550;BME280;11441;57.164;-2.120;2023-02-14T08:58:14;102004.72;;;4.10;100.00
22550;BME280;11441;57.164;-2.120;2023-02-14T09:00:41;101994.38;;;4.07;100.00
22550;BME280;11441;57.164;-2.120;2023-02-14T09:03:08;101994.66;;;4.00;100.00
22550;BME280;11441;57.164;-2.120;2023-02-14T09:05:36;101987.22;;;4.16;100.00
22550;BME280;11441;57.164;-2.120;2023-02-14T09:08:03;101988.06;;;4.17;100.00
22550;BME280;11441;57.164;-2.120;2023-02-14T09:10:30;101966.59;;;4.00;100.00
22550;BME280;11441;57.164;-2.120;2023-02-14T09:12:57;101960.28;;;4.09;100.00
22550;BME280;11441;57.164;-2.120;2023-02-14T09:15:23;101967.03;;;4.22;100.00
22550;BME280;11441;57.164;-2.120;2023-02-14T09:17:50;101982.44;;;4.42;100.00
22550;BME280;11441;57.164;-2.120;2023-02-14T09:20:17;101987.13;;;4.37;100.00
22550;BME280;11441;57.164;-2.120;2023-02-14T09:22:44;101964.44;;;4.46;100.00
22550;BME280;11441;57.164;-2.120;2023-02-14T09:25:14;101970.78;;;4.31;100.00
22550;BME280;11441;57.164;-2.120;2023-02-14T09:27:42;101966.91;;;4.43;100.00
22550;BME280;11441;57.164;-2.120;2023-02-14T09:30:09;101960.59;;;4.47;100.00
22550;BME280;11441;57.164;-2.120;2023-02-14T09:32:36;101966.81;;;4.58;100.00
22550;BME280;11441;57.164;-2.120;2023-02-14T09:35:03;101977.81;;;4.48;100.00
22550;BME280;11441;57.164;-2.120;2023-02-14T09:37:30;101979.03;;;4.66;100.00
22550;BME280;11441;57.164;-2.120;2023-02-14T09:40:17;101976.13;;;4.52;100.00
22550;BME280;11441;57.164;-2.120;2023-02-14T09:42:52;101985.00;;;4.73;100.00
22550;BME280;11441;57.164;-2.120;2023-02-14T09:45:24;101970.00;;;4.70;100.00
22550;BME280;11441;57.164;-2.120;2023-02-14T09:50:49;101981.88;;;4.90;100.00
22550;BME280;11441;57.164;-2.120;2023-02-14T09:53:27;101986.00;;;4.82;100.00
22550;BME280;11441;57.164;-2.120;2023-02-14T09:58:49;101972.91;;;4.84;100.00
22550;BME280;11441;57.164;-2.120;2023-02-14T10:01:28;101989.50;;;4.93;100.00
22550;BME280;11441;57.164;-2.120;2023-02-14T10:07:26;102004.03;;;5.18;100.00
22550;BME280;11441;57.164;-2.120;2023-02-14T10:13:26;101993.97;;;5.42;100.00
22550;BME280;11441;57.164;-2.120;2023-02-14T10:16:21;102001.25;;;5.52;100.00
22550;BME280;11441;57.164;-2.120;2023-02-14T10:18:53;101998.81;;;5.51;100.00
22550;BME280;11441;57.164;-2.120;2023-02-14T10:21:25;101998.50;;;5.76;100.00
22550;BME280;11441;57.164;-2.120;2023-02-14T10:24:01;102008.69;;;5.71;100.00
22550;BME280;11441;57.164;-2.120;2023-02-14T10:26:36;101992.81;;;5.73;100.00
22550;BME280;11441;57.164;-2.120;2023-02-14T10:29:15;101995.56;;;5.73;100.00
22550;BME280;11441;57.164;-2.120;2023-02-14T10:31:48;102007.25;;;5.78;100.00
22550;BME280;11441;57.164;-2.120;2023-02-14T10:34:42;101994.97;;;5.76;100.00
22550;BME280;11441;57.164;-2.120;2023-02-14T10:51:43;101986.19;;;5.79;100.00
22550;BME280;11441;57.164;-2.120;2023-02-14T10:57:10;101963.03;;;5.95;100.00
22550;BME280;11441;57.164;-2.120;2023-02-14T11:00:00;101968.44;;;5.76;100.00
22550;BME280;11441;57.164;-2.120;2023-02-14T11:02:46;101954.13;;;5.84;100.00
22550;BME280;11441;57.164;-2.120;2023-02-14T11:07:52;101963.31;;;5.94;100.00
22550;BME280;11441;57.164;-2.120;2023-02-14T11:10:23;101968.09;;;5.83;100.00
22550;BME280;11441;57.164;-2.120;2023-02-14T11:12:50;101957.56;;;5.95;100.00
22550;BME280;11441;57.164;-2.120;2023-02-14T11:15:24;101964.94;;;5.95;100.00
22550;BME280;11441;57.164;-2.120;2023-02-14T11:18:22;101955.47;;;6.11;100.00
22550;BME280;11441;57.164;-2.120;2023-02-14T11:21:22;101958.66;;;5.99;100.00
22550;BME280;11441;57.164;-2.120;2023-02-14T11:24:16;101960.88;;;6.16;100.00
22550;BME280;11441;57.164;-2.120;2023-02-14T11:26:49;101948.47;;;6.24;100.00
22550;BME280;11441;57.164;-2.120;2023-02-14T11:29:47;101948.53;;;6.38;100.00
22550;BME280;11441;57.164;-2.120;2023-02-14T11:32:22;101940.16;;;6.10;100.00
22550;BME280;11441;57.164;-2.120;2023-02-14T11:35:03;101937.53;;;6.24;100.00
22550;BME280;11441;57.164;-2.120;2023-02-14T11:37:35;101950.97;;;6.39;100.00
22550;BME280;11441;57.164;-2.120;2023-02-14T11:40:04;101949.78;;;6.27;100.00
22550;BME280;11441;57.164;-2.120;2023-02-14T11:42:43;101928.94;;;6.50;100.00
22550;BME280;11441;57.164;-2.120;2023-02-14T11:45:37;101920.59;;;6.41;100.00
22550;BME280;11441;57.164;-2.120;2023-02-14T11:50:36;101917.22;;;6.63;100.00
22550;BME280;11441;57.164;-2.120;2023-02-14T11:53:10;101909.22;;;6.67;100.00
22550;BME280;11441;57.164;-2.120;2023-02-14T11:55:38;101909.38;;;6.56;100.00
22550;BME280;11441;57.164;-2.120;2023-02-14T11:58:07;101898.97;;;6.58;100.00
22550;BME280;11441;57.164;-2.120;2023-02-14T12:00:52;101887.53;;;6.70;100.00
22550;BME280;11441;57.164;-2.120;2023-02-14T12:03:20;101889.72;;;6.87;100.00
22550;BME280;11441;57.164;-2.120;2023-02-14T12:05:49;101878.06;;;6.95;100.00
22550;BME280;11441;57.164;-2.120;2023-02-14T12:08:22;101885.91;;;7.02;100.00
22550;BME280;11441;57.164;-2.120;2023-02-14T12:11:01;101887.28;;;6.86;100.00
22550;BME280;11441;57.164;-2.120;2023-02-14T12:13:29;101879.69;;;6.96;100.00
22550;BME280;11441;57.164;-2.120;2023-02-14T12:15:58;101884.34;;;6.96;100.00
22550;BME280;11441;57.164;-2.120;2023-02-14T12:24:49;101865.59;;;7.17;100.00
22550;BME280;11441;57.164;-2.120;2023-02-14T12:27:20;101870.59;;;7.15;100.00
22550;BME280;11441;57.164;-2.120;2023-02-14T12:30:00;101872.22;;;7.44;100.00
22550;BME280;11441;57.164;-2.120;2023-02-14T12:32:49;101865.09;;;7.29;100.00
22550;BME280;11441;57.164;-2.120;2023-02-14T12:43:53;101841.63;;;8.01;100.00
22550;BME280;11441;57.164;-2.120;2023-02-14T12:46:46;101837.44;;;8.17;100.00
22550;BME280;11441;57.164;-2.120;2023-02-14T12:54:31;101801.38;;;8.10;100.00
22550;BME280;11441;57.164;-2.120;2023-02-14T13:00:18;101801.31;;;8.24;100.00
22550;BME280;11441;57.164;-2.120;2023-02-14T13:16:45;101783.72;;;8.47;100.00
22550;BME280;11441;57.164;-2.120;2023-02-14T13:22:20;101781.47;;;8.49;100.00
22550;BME280;11441;57.164;-2.120;2023-02-14T13:24:50;101786.69;;;8.60;100.00
22550;BME280;11441;57.164;-2.120;2023-02-14T13:27:22;101794.31;;;8.63;100.00
22550;BME280;11441;57.164;-2.120;2023-02-14T13:29:53;101780.91;;;8.61;100.00
22550;BME280;11441;57.164;-2.120;2023-02-14T13:32:25;101783.69;;;8.70;100.00
22550;BME280;11441;57.164;-2.120;2023-02-14T13:35:16;101778.00;;;8.66;100.00
22550;BME280;11441;57.164;-2.120;2023-02-14T13:37:48;101766.53;;;8.64;100.00
22550;BME280;11441;57.164;-2.120;2023-02-14T13:40:20;101770.75;;;8.71;100.00
22550;BME280;11441;57.164;-2.120;2023-02-14T13:48:09;101771.97;;;8.87;100.00
22550;BME280;11441;57.164;-2.120;2023-02-14T13:50:50;101758.72;;;8.89;100.00
22550;BME280;11441;57.164;-2.120;2023-02-14T13:56:50;101784.75;;;8.92;100.00
22550;BME280;11441;57.164;-2.120;2023-02-14T13:59:03;101780.09;;;9.01;100.00
22550;BME280;11441;57.164;-2.120;2023-02-14T14:04:50;101778.97;;;9.02;100.00
22550;BME280;11441;57.164;-2.120;2023-02-14T14:20:44;101783.50;;;9.06;100.00
22550;BME280;11441;57.164;-2.120;2023-02-14T14:23:32;101776.25;;;9.19;100.00
22550;BME280;11441;57.164;-2.120;2023-02-14T14:26:00;101770.13;;;9.14;100.00
22550;BME280;11441;57.164;-2.120;2023-02-14T14:28:30;101754.25;;;9.11;100.00
22550;BME280;11441;57.164;-2.120;2023-02-14T14:31:18;101760.72;;;9.06;100.00
22550;BME280;11441;57.164;-2.120;2023-02-14T14:33:56;101760.69;;;8.97;100.00
22550;BME280;11441;57.164;-2.120;2023-02-14T14:36:24;101764.97;;;8.81;100.00
22550;BME280;11441;57.164;-2.120;2023-02-14T14:38:52;101747.88;;;8.84;100.00
22550;BME280;11441;57.164;-2.120;2023-02-14T14:41:26;101745.09;;;8.75;100.00
22550;BME280;11441;57.164;-2.120;2023-02-14T14:44:13;101722.31;;;8.75;100.00
22550;BME280;11441;57.164;-2.120;2023-02-14T14:46:40;101738.13;;;8.69;100.00
22550;BME280;11441;57.164;-2.120;2023-02-14T14:49:08;101744.03;;;8.54;100.00
22550;BME280;11441;57.164;-2.120;2023-02-14T14:51:36;101743.34;;;8.48;100.00
22550;BME280;11441;57.164;-2.120;2023-02-14T14:54:06;101737.72;;;8.53;100.00
22550;BME280;11441;57.164;-2.120;2023-02-14T14:56:58;101727.94;;;8.38;100.00
22550;BME280;11441;57.164;-2.120;2023-02-14T14:59:32;101743.59;;;8.38;100.00
22550;BME280;11441;57.164;-2.120;2023-02-14T15:02:22;101752.47;;;8.35;100.00
22550;BME280;11441;57.164;-2.120;2023-02-14T15:04:49;101749.97;;;8.24;100.00
22550;BME280;11441;57.164;-2.120;2023-02-14T15:07:27;101738.34;;;8.19;100.00
22550;BME280;11441;57.164;-2.120;2023-02-14T15:09:58;101744.31;;;7.98;100.00
22550;BME280;11441;57.164;-2.120;2023-02-14T15:12:26;101753.03;;;8.00;100.00
22550;BME280;11441;57.164;-2.120;2023-02-14T15:15:15;101735.47;;;7.79;100.00
22550;BME280;11441;57.164;-2.120;2023-02-14T15:17:44;101747.81;;;7.90;100.00
22550;BME280;11441;57.164;-2.120;2023-02-14T15:20:20;101739.88;;;7.88;100.00
22550;BME280;11441;57.164;-2.120;2023-02-14T15:22:49;101739.13;;;7.74;100.00
22550;BME280;11441;57.164;-2.120;2023-02-14T15:27:44;101731.28;;;8.04;100.00
22550;BME280;11441;57.164;-2.120;2023-02-14T15:30:33;101722.44;;;7.84;100.00